Time;durP1;ratioP1;P1;durP2;ratioP2;P2;SDS_P1;SDS_P2;PMS_P1;PMS_P2;Temp;Humidity;BMP_temperature;BMP_pressure;BME280_temperature;BME280_humidity;BME280_pressure;Samples;Min_cycle;Max_cycle;Signal;HPM_P1;HPM_P2
2023/07/26 00:02:09;;;;;;;1.80;1.70;;;;;;;16.68;91.47;95282.56;4919216;29;20265;-86
2023/07/26 00:04:35;;;;;;;2.40;1.70;;;;;;;16.67;90.52;95270.59;4919366;29;20226;-86
2023/07/26 00:07:02;;;;;;;2.15;1.80;;;;;;;16.64;90.72;95275.44;4920235;29;20220;-86
2023/07/26 00:09:38;;;;;;;2.55;1.73;;;;;;;16.65;91.89;95301.22;4920282;29;20206;-86
2023/07/26 00:12:14;;;;;;;2.30;2.10;;;;;;;16.57;91.43;95297.06;4919882;29;20209;-87
2023/07/26 00:14:40;;;;;;;2.30;2.10;;;;;;;16.49;91.14;95297.41;4919885;29;20768;-87
2023/07/26 00:17:10;;;;;;;2.13;1.92;;;;;;;16.41;91.57;95309.88;4920235;29;20242;-87
2023/07/26 00:19:41;;;;;;;2.58;2.38;;;;;;;16.39;92.99;95325.69;4921513;29;20584;-86
2023/07/26 00:22:08;;;;;;;1.98;1.80;;;;;;;16.38;92.45;95321.50;4924637;29;20217;-86
2023/07/26 00:24:35;;;;;;;2.83;1.90;;;;;;;16.42;92.48;95324.47;4941644;29;20265;-86
2023/07/26 00:27:02;;;;;;;2.45;2.10;;;;;;;16.46;91.36;95315.22;4941489;29;20205;-87
2023/07/26 00:29:28;;;;;;;2.15;1.98;;;;;;;16.44;91.32;95309.44;4941791;29;20205;-86
2023/07/26 00:32:07;;;;;;;2.47;2.22;;;;;;;16.45;91.58;95317.03;4942073;29;20201;-86
2023/07/26 00:34:34;;;;;;;2.08;1.98;;;;;;;16.47;92.20;95322.81;4932369;29;20281;-86
2023/07/26 00:37:05;;;;;;;3.08;2.35;;;;;;;16.39;91.17;95304.09;4922371;29;20266;-87
2023/07/26 00:39:31;;;;;;;2.40;2.20;;;;;;;16.46;90.94;95305.63;4921949;29;20262;-86
2023/07/26 00:42:17;;;;;;;2.55;2.30;;;;;;;16.43;92.23;95331.25;4921694;29;20240;-85
2023/07/26 00:44:44;;;;;;;2.38;1.92;;;;;;;16.46;91.56;95328.22;4920461;29;20301;-86
2023/07/26 00:47:11;;;;;;;3.75;2.20;;;;;;;16.51;90.84;95310.16;4920245;29;20265;-86
2023/07/26 00:49:38;;;;;;;2.33;2.00;;;;;;;16.46;90.86;95310.81;4921421;29;20217;-87
2023/07/26 00:52:12;;;;;;;2.47;2.28;;;;;;;16.45;91.71;95321.44;4919354;29;20270;-86
2023/07/26 00:54:44;;;;;;;2.47;2.28;;;;;;;16.46;91.44;95325.63;4920049;29;20233;-86
2023/07/26 00:57:10;;;;;;;2.70;2.50;;;;;;;16.42;91.55;95330.47;4921310;29;20257;-87
2023/07/26 00:59:38;;;;;;;2.70;2.50;;;;;;;16.30;91.53;95324.41;4920241;29;20233;-86
2023/07/26 01:02:05;;;;;;;2.65;2.40;;;;;;;16.27;91.95;95334.44;4921518;29;20230;-87
2023/07/26 01:04:34;;;;;;;2.60;2.40;;;;;;;16.22;92.07;95345.47;4935210;29;20230;-86
2023/07/26 01:07:07;;;;;;;2.70;2.50;;;;;;;16.30;92.51;95355.59;4914795;29;20673;-86
2023/07/26 01:09:45;;;;;;;3.78;2.72;;;;;;;16.35;91.83;95347.16;4921501;29;20248;-85
2023/07/26 01:12:16;;;;;;;2.67;2.47;;;;;;;16.42;91.19;95335.66;4929629;29;20281;-88
2023/07/26 01:14:51;;;;;;;3.83;3.03;;;;;;;16.39;92.22;95353.47;4939244;29;20229;-86
2023/07/26 01:17:18;;;;;;;3.22;2.70;;;;;;;16.41;91.80;95349.66;4940550;29;20597;-86
2023/07/26 01:19:44;;;;;;;3.65;3.00;;;;;;;16.42;90.88;95338.25;4939513;29;20206;-87
2023/07/26 01:22:12;;;;;;;3.28;2.97;;;;;;;16.42;91.14;95353.84;4934719;29;20201;-85
2023/07/26 01:24:41;;;;;;;3.63;2.85;;;;;;;16.47;90.60;95337.59;4919785;29;20300;-86
2023/07/26 01:27:10;;;;;;;3.03;2.72;;;;;;;16.49;90.91;95341.56;4919678;29;20246;-87
2023/07/26 01:29:36;;;;;;;5.75;3.20;;;;;;;16.45;90.55;95335.22;4919196;29;20221;-86
2023/07/26 01:32:04;;;;;;;3.40;3.10;;;;;;;16.36;91.48;95346.91;4919211;29;20229;-85
2023/07/26 01:34:31;;;;;;;4.15;3.17;;;;;;;16.38;90.98;95338.91;4915830;29;20214;-86
2023/07/26 01:36:59;;;;;;;3.05;2.85;;;;;;;16.39;90.56;95340.50;4919115;29;20210;-86
2023/07/26 01:39:28;;;;;;;5.50;3.58;;;;;;;16.40;90.02;95324.69;4920384;29;20203;-86
2023/07/26 01:41:56;;;;;;;3.50;3.13;;;;;;;16.38;91.14;95341.50;4918879;29;20278;-86
2023/07/26 01:44:22;;;;;;;3.85;3.35;;;;;;;16.29;90.88;95355.81;4984959;23;20240;-87
2023/07/26 01:46:55;;;;;;;5.13;3.50;;;;;;;16.29;91.51;95361.00;4957832;29;20232;-86
2023/07/26 01:49:22;;;;;;;3.42;3.13;;;;;;;16.24;92.32;95366.84;4959130;29;20197;-86
2023/07/26 01:51:48;;;;;;;3.70;3.40;;;;;;;16.21;92.67;95381.06;4958177;29;20594;-87
2023/07/26 01:54:15;;;;;;;5.05;3.20;;;;;;;16.29;91.24;95361.00;4956831;29;20221;-87
2023/07/26 01:56:43;;;;;;;3.60;3.30;;;;;;;16.21;91.99;95373.25;4957360;29;20209;-86
2023/07/26 01:59:09;;;;;;;3.35;3.05;;;;;;;16.21;92.02;95373.25;4944764;29;20198;-86
2023/07/26 02:01:36;;;;;;;3.60;3.30;;;;;;;16.20;92.11;95371.69;4938085;29;20206;-86
2023/07/26 02:04:09;;;;;;;4.88;3.70;;;;;;;16.16;92.02;95375.72;4938982;29;20764;-86
2023/07/26 02:06:35;;;;;;;3.90;3.60;;;;;;;16.16;91.84;95375.72;4957297;29;20285;-85
2023/07/26 02:09:02;;;;;;;4.60;3.78;;;;;;;16.21;91.55;95375.88;4940505;29;20226;-86
2023/07/26 02:11:28;;;;;;;4.38;3.58;;;;;;;16.21;91.87;95375.88;4942880;29;20208;-86
2023/07/26 02:13:58;;;;;;;3.60;3.30;;;;;;;16.17;93.02;95399.88;4953749;29;20225;-86
2023/07/26 02:16:25;;;;;;;3.75;3.30;;;;;;;16.14;93.81;95413.31;4957421;29;20232;-86
2023/07/26 02:18:51;;;;;;;3.63;3.10;;;;;;;16.21;92.47;95399.25;4957398;29;20209;-85
2023/07/26 02:21:17;;;;;;;3.47;3.17;;;;;;;16.24;91.46;95380.63;4956580;29;20208;-86
2023/07/26 02:23:44;;;;;;;3.90;3.50;;;;;;;16.22;91.96;95392.25;4937502;29;20225;-87
2023/07/26 02:26:10;;;;;;;4.05;3.60;;;;;;;16.21;91.50;95388.84;4937569;29;20207;-86
2023/07/26 02:28:37;;;;;;;4.90;3.53;;;;;;;16.20;91.86;95402.84;4944697;29;20216;-87
2023/07/26 02:31:05;;;;;;;4.68;3.90;;;;;;;16.22;91.93;95397.44;4944954;29;20356;-86
2023/07/26 02:33:31;;;;;;;4.65;3.60;;;;;;;16.31;91.13;95388.38;4937639;29;20624;-87
2023/07/26 02:35:59;;;;;;;5.38;4.10;;;;;;;16.23;90.47;95383.44;4936975;29;20201;-86
2023/07/26 02:38:25;;;;;;;6.13;3.85;;;;;;;16.19;91.01;95395.28;4936839;29;20668;-86
2023/07/26 02:40:52;;;;;;;3.95;3.38;;;;;;;16.23;91.14;95407.63;4935437;29;20630;-87
2023/07/26 02:43:19;;;;;;;4.25;3.80;;;;;;;16.33;91.16;95403.75;4939943;29;20224;-86
2023/07/26 02:45:45;;;;;;;4.20;3.50;;;;;;;16.33;91.05;95401.94;4949221;29;20235;-86
2023/07/26 02:48:13;;;;;;;3.88;3.45;;;;;;;16.36;90.79;95398.88;4955752;29;20209;-87
2023/07/26 02:50:39;;;;;;;4.35;3.70;;;;;;;16.38;90.06;95396.06;4955051;29;20200;-86
2023/07/26 02:53:24;;;;;;;5.78;4.22;;;;;;;16.32;89.44;95378.75;4941077;29;20205;-87
2023/07/26 02:55:50;;;;;;;5.07;3.70;;;;;;;16.36;90.18;95396.28;4936328;29;20213;-86
2023/07/26 02:58:17;;;;;;;4.05;3.65;;;;;;;16.36;89.79;95403.28;4940616;29;20212;-86
2023/07/26 03:00:43;;;;;;;5.03;3.58;;;;;;;16.40;90.12;95407.03;4950596;29;20212;-86
2023/07/26 03:03:10;;;;;;;6.25;3.97;;;;;;;16.40;89.32;95396.66;4947535;29;20272;-87
2023/07/26 03:05:38;;;;;;;3.80;3.50;;;;;;;16.38;90.02;95415.06;4938706;29;20229;-86
2023/07/26 03:08:05;;;;;;;4.10;3.80;;;;;;;16.34;88.74;95387.13;4936077;29;20205;-85
2023/07/26 03:10:34;;;;;;;4.47;3.58;;;;;;;16.29;90.10;95407.78;4936628;29;20213;-85
2023/07/26 03:13:01;;;;;;;3.92;3.60;;;;;;;16.28;90.20;95417.38;4936203;29;20209;-85
2023/07/26 03:15:27;;;;;;;3.88;3.53;;;;;;;16.32;90.36;95423.72;4943537;29;20236;-87
2023/07/26 03:17:54;;;;;;;4.03;3.63;;;;;;;16.19;90.38;95424.63;4959503;29;20209;-86
2023/07/26 03:20:22;;;;;;;4.25;3.72;;;;;;;16.17;90.95;95431.84;4959897;29;20737;-87
2023/07/26 03:22:51;;;;;;;4.60;3.80;;;;;;;16.15;90.69;95430.50;4947475;29;20206;-86
2023/07/26 03:25:17;;;;;;;4.15;3.85;;;;;;;16.17;92.65;95462.22;4939624;29;20230;-85
2023/07/26 03:27:44;;;;;;;4.13;3.72;;;;;;;16.08;93.77;95479.09;4947448;29;20210;-85
2023/07/26 03:30:12;;;;;;;4.22;3.80;;;;;;;16.11;92.03;95463.09;4946673;29;20201;-87
2023/07/26 03:32:38;;;;;;;4.90;4.28;;;;;;;16.06;92.84;95473.31;4955163;29;20201;-86
2023/07/26 03:35:05;;;;;;;4.05;3.75;;;;;;;16.07;94.13;95486.09;4954689;29;20225;-85
2023/07/26 03:37:32;;;;;;;4.75;4.22;;;;;;;16.11;93.37;95489.88;4958675;29;20284;-86
2023/07/26 03:40:00;;;;;;;4.13;3.72;;;;;;;16.09;93.70;95489.28;4959249;29;20204;-86
2023/07/26 03:42:27;;;;;;;4.40;4.00;;;;;;;16.07;94.14;95493.09;4941278;29;20197;-86
2023/07/26 03:44:54;;;;;;;4.68;4.28;;;;;;;16.06;94.01;95496.69;4944156;29;20218;-85
2023/07/26 03:47:20;;;;;;;4.45;4.05;;;;;;;16.18;93.16;95495.78;4937931;29;20208;-85
2023/07/26 03:49:47;;;;;;;4.47;4.07;;;;;;;16.18;92.36;95479.41;4957274;29;20231;-85
2023/07/26 03:52:13;;;;;;;4.82;4.43;;;;;;;16.05;92.12;95477.72;4942761;29;20230;-86
2023/07/26 03:54:39;;;;;;;5.45;4.50;;;;;;;16.00;92.72;95481.97;4960371;29;20224;-86
2023/07/26 03:57:08;;;;;;;4.90;4.43;;;;;;;15.96;94.18;95510.19;4944959;29;20201;-86
2023/07/26 03:59:34;;;;;;;5.10;4.60;;;;;;;15.99;92.55;95490.75;4953092;29;20204;-86
2023/07/26 04:02:00;;;;;;;5.82;4.60;;;;;;;15.98;92.67;95484.75;4956396;29;20205;-86
2023/07/26 04:04:27;;;;;;;4.70;4.28;;;;;;;15.97;93.91;95510.97;4954310;29;20253;-87
2023/07/26 04:06:53;;;;;;;4.95;4.05;;;;;;;16.00;93.54;95502.72;4959461;29;20213;-88
2023/07/26 04:09:20;;;;;;;4.63;4.22;;;;;;;15.85;93.63;95506.44;4960921;29;20211;-87
2023/07/26 04:11:46;;;;;;;5.32;4.45;;;;;;;15.88;94.27;95518.22;4958867;29;20658;-86
2023/07/26 04:14:14;;;;;;;5.93;4.70;;;;;;;15.94;93.63;95516.59;4941395;29;20225;-86
2023/07/26 04:16:43;;;;;;;5.32;4.75;;;;;;;15.99;93.49;95514.91;4940945;29;20206;-87
2023/07/26 04:19:09;;;;;;;5.18;4.50;;;;;;;15.97;92.99;95506.53;4940838;29;20283;-87
2023/07/26 04:21:36;;;;;;;4.82;4.40;;;;;;;16.02;93.13;95516.31;4951583;29;20243;-86
2023/07/26 04:24:02;;;;;;;5.28;4.88;;;;;;;16.05;93.95;95528.88;4940811;29;20826;-86
2023/07/26 04:26:29;;;;;;;5.18;4.75;;;;;;;16.05;93.92;95523.69;4941281;29;20197;-87
2023/07/26 04:28:55;;;;;;;5.60;5.20;;;;;;;16.07;93.77;95525.06;4941331;29;20205;-86
2023/07/26 04:31:23;;;;;;;6.50;5.57;;;;;;;16.07;93.03;95517.28;4946026;29;20871;-86
2023/07/26 04:33:49;;;;;;;6.30;5.80;;;;;;;16.09;93.32;95524.84;4965772;29;20200;-86
2023/07/26 04:36:16;;;;;;;8.05;5.55;;;;;;;16.10;93.68;95527.25;4962223;29;20603;-86
2023/07/26 04:38:42;;;;;;;9.05;8.23;;;;;;;16.13;92.88;95521.63;4962690;29;20212;-86
2023/07/26 04:41:09;;;;;;;7.95;7.15;;;;;;;16.13;92.24;95510.44;4960707;29;20205;-87
2023/07/26 04:43:35;;;;;;;7.05;6.38;;;;;;;16.09;92.34;95509.28;4959938;29;20233;-86
2023/07/26 04:46:02;;;;;;;7.70;6.45;;;;;;;16.07;94.03;95535.44;4961931;29;20320;-88
2023/07/26 04:48:31;;;;;;;7.70;6.10;;;;;;;16.25;94.81;95560.69;4962588;29;20204;-87
2023/07/26 04:50:57;;;;;;;7.57;6.60;;;;;;;16.28;93.70;95547.28;4962282;29;20193;-88
2023/07/26 04:53:24;;;;;;;8.30;7.22;;;;;;;16.24;92.88;95527.91;4962611;29;20232;-86
2023/07/26 04:55:52;;;;;;;9.48;7.53;;;;;;;16.28;92.72;95533.50;4958310;29;20256;-86
2023/07/26 04:58:20;;;;;;;9.40;7.60;;;;;;;16.32;91.58;95526.88;4946824;29;20807;-87
2023/07/26 05:00:47;;;;;;;9.13;8.25;;;;;;;16.21;91.96;95526.53;4954151;29;20209;-87
2023/07/26 05:03:14;;;;;;;9.02;8.13;;;;;;;16.20;92.70;95548.31;4942939;29;20630;-87
2023/07/26 05:06:13;;;;;;;9.43;8.40;;;;;;;16.26;92.83;95540.69;4942438;29;20734;-87
2023/07/26 05:09:02;;;;;;;9.38;8.27;;;;;;;16.11;91.44;95530.63;4948783;29;20687;-87
2023/07/26 05:11:28;;;;;;;9.80;8.77;;;;;;;16.09;91.77;95533.44;4960358;29;20640;-87
2023/07/26 05:13:55;;;;;;;9.60;8.23;;;;;;;16.14;92.19;95545.81;4958479;29;20208;-87
2023/07/26 05:16:21;;;;;;;10.30;8.88;;;;;;;16.06;92.53;95548.66;4958216;29;20543;-86
2023/07/26 05:18:48;;;;;;;19.40;17.52;;;;;;;16.10;91.51;95545.41;4947809;29;20208;-87
2023/07/26 05:21:17;;;;;;;13.55;12.15;;;;;;;16.14;91.27;95543.19;4939506;29;20208;-86
2023/07/26 05:26:26;;;;;;;9.93;9.00;;;;;;;16.21;91.26;95551.72;4958270;29;20212;-87
2023/07/26 05:28:53;;;;;;;11.32;9.70;;;;;;;16.17;91.29;95553.94;4958018;29;20409;-86
2023/07/26 05:31:19;;;;;;;10.32;9.07;;;;;;;16.23;90.32;95536.72;4958926;29;20216;-87
2023/07/26 05:33:48;;;;;;;9.40;8.60;;;;;;;16.19;91.45;95556.34;4959187;29;20205;-87
2023/07/26 05:36:16;;;;;;;9.85;8.90;;;;;;;16.23;90.78;95557.50;4958737;29;20682;-87
2023/07/26 05:38:42;;;;;;;10.90;9.80;;;;;;;16.26;90.37;95551.88;4959933;29;20201;-87
2023/07/26 05:41:09;;;;;;;10.80;9.80;;;;;;;16.27;89.98;95545.69;4955650;29;20208;-87
2023/07/26 05:43:35;;;;;;;11.70;9.77;;;;;;;16.19;91.33;95570.13;4957494;29;20212;-86
2023/07/26 05:46:02;;;;;;;11.30;10.20;;;;;;;16.23;90.78;95563.50;4961551;29;20228;-87
2023/07/26 05:48:29;;;;;;;10.25;9.25;;;;;;;16.31;90.15;95556.47;4959771;29;20260;-87
2023/07/26 05:50:55;;;;;;;13.27;9.85;;;;;;;16.31;90.76;95562.44;4959371;29;20208;-87
2023/07/26 05:53:29;;;;;;;22.25;20.05;;;;;;;16.35;90.96;95568.03;4958123;29;20725;-86
2023/07/26 05:55:55;;;;;;;14.95;13.38;;;;;;;16.40;90.03;95544.78;4951049;29;20213;-86
2023/07/26 05:58:22;;;;;;;11.05;9.95;;;;;;;16.41;90.42;95565.34;4953788;29;20209;-86
2023/07/26 06:00:48;;;;;;;10.82;9.73;;;;;;;16.40;89.52;95553.34;4958197;29;20205;-85
2023/07/26 06:03:15;;;;;;;11.63;10.38;;;;;;;16.37;90.06;95561.56;4955877;29;20197;-88
2023/07/26 06:05:41;;;;;;;14.15;9.98;;;;;;;16.31;89.48;95551.25;4943753;29;20226;-86
2023/07/26 06:08:08;;;;;;;12.00;10.57;;;;;;;16.29;90.42;95563.66;4944946;29;20209;-87
2023/07/26 06:10:41;;;;;;;11.98;10.73;;;;;;;16.28;90.60;95572.47;4944878;29;20209;-86
2023/07/26 06:13:12;;;;;;;11.63;10.43;;;;;;;16.28;89.85;95569.88;4946912;29;20550;-87
2023/07/26 06:15:39;;;;;;;11.68;10.48;;;;;;;16.19;90.29;95577.13;4956504;28;20221;-86
2023/07/26 06:18:06;;;;;;;11.80;10.70;;;;;;;16.08;91.51;95589.00;4957357;29;20209;-87
2023/07/26 06:20:32;;;;;;;12.65;11.35;;;;;;;16.00;92.12;95609.22;4944287;29;20209;-87
2023/07/26 06:22:59;;;;;;;11.60;10.50;;;;;;;15.95;92.09;95607.25;4942851;29;20298;-87
2023/07/26 06:25:25;;;;;;;11.45;10.45;;;;;;;15.90;91.47;95612.28;4943893;29;20233;-86
2023/07/26 06:27:59;;;;;;;11.18;10.27;;;;;;;15.83;92.47;95619.31;4943171;29;20881;-87
2023/07/26 06:30:25;;;;;;;10.85;9.85;;;;;;;15.70;93.27;95637.53;4956848;29;20205;-88
2023/07/26 06:32:52;;;;;;;11.25;10.15;;;;;;;15.62;95.15;95658.53;4961665;29;20220;-86
2023/07/26 06:35:19;;;;;;;11.23;10.23;;;;;;;15.58;96.35;95686.72;4963222;29;20221;-87
2023/07/26 06:37:45;;;;;;;12.10;10.43;;;;;;;15.64;94.94;95659.91;4960405;29;20216;-88
2023/07/26 06:40:12;;;;;;;11.25;9.60;;;;;;;15.46;94.06;95652.78;4959313;29;20212;-87
2023/07/26 06:42:39;;;;;;;10.38;9.38;;;;;;;15.54;94.99;95670.72;4960154;29;20212;-86
2023/07/26 06:45:08;;;;;;;11.52;10.10;;;;;;;15.65;95.33;95674.50;5018051;23;20240;-87
2023/07/26 06:47:34;;;;;;;10.93;9.70;;;;;;;15.63;95.51;95667.91;4948218;29;20241;-87
2023/07/26 06:50:11;;;;;;;10.65;9.75;;;;;;;15.50;95.95;95681.72;4958794;29;20205;-88
2023/07/26 06:52:39;;;;;;;10.73;9.73;;;;;;;15.57;95.23;95679.13;4958783;29;20189;-86
2023/07/26 06:55:06;;;;;;;10.77;9.68;;;;;;;15.60;94.72;95676.91;4940485;29;20754;-88
2023/07/26 06:57:32;;;;;;;11.07;10.05;;;;;;;15.72;94.52;95680.47;4941533;29;20208;-86
2023/07/26 06:59:59;;;;;;;10.55;9.50;;;;;;;15.79;94.55;95678.63;4956111;29;20201;-86
2023/07/26 07:02:33;;;;;;;12.02;9.73;;;;;;;15.80;93.72;95669.84;4959504;29;20236;-88
2023/07/26 07:04:59;;;;;;;8.55;7.68;;;;;;;15.83;93.12;95663.44;4960300;29;20256;-86
2023/07/26 07:07:26;;;;;;;9.27;8.40;;;;;;;15.77;92.39;95633.13;4960535;29;20201;-86
2023/07/26 07:09:52;;;;;;;8.65;7.85;;;;;;;15.83;90.65;95624.50;4959863;29;20204;-87
2023/07/26 07:12:19;;;;;;;19.45;17.58;;;;;;;15.86;91.63;95637.06;4951903;29;20590;-86
2023/07/26 07:14:45;;;;;;;10.13;9.15;;;;;;;15.98;90.68;95630.19;4962580;29;20231;-86
2023/07/26 07:17:11;;;;;;;8.55;6.90;;;;;;;15.98;90.63;95632.00;4957528;29;20224;-86
2023/07/26 07:19:39;;;;;;;8.23;6.90;;;;;;;15.99;89.28;95610.22;4959876;29;20204;-86
2023/07/26 07:22:06;;;;;;;7.03;6.25;;;;;;;16.06;88.40;95608.38;4955756;29;20206;-86
2023/07/26 07:24:34;;;;;;;6.65;6.05;;;;;;;16.07;88.32;95597.00;4944042;29;20225;-87
2023/07/26 07:27:00;;;;;;;6.63;5.97;;;;;;;16.04;88.69;95606.00;4948068;29;20687;-88
2023/07/26 07:29:27;;;;;;;8.45;5.90;;;;;;;16.05;89.03;95612.78;4941595;29;20285;-86
2023/07/26 07:31:55;;;;;;;6.00;5.13;;;;;;;16.11;88.24;95606.75;4937479;29;20209;-86
2023/07/26 07:34:21;;;;;;;6.53;4.78;;;;;;;16.05;86.19;95560.03;4942707;29;20229;-86
2023/07/26 07:36:50;;;;;;;4.75;4.35;;;;;;;16.16;86.42;95565.34;4954686;29;20327;-86
2023/07/26 07:39:17;;;;;;;4.75;4.35;;;;;;;16.15;86.64;95579.38;4960795;29;20213;-87
2023/07/26 07:41:44;;;;;;;5.22;4.05;;;;;;;16.15;86.52;95575.97;4959713;29;20204;-86
2023/07/26 07:44:10;;;;;;;5.47;4.05;;;;;;;16.13;84.39;95547.59;4958097;29;20233;-87
2023/07/26 07:46:36;;;;;;;11.38;4.35;;;;;;;16.20;85.87;95560.53;4957283;29;20228;-87
2023/07/26 07:49:09;;;;;;;4.40;3.70;;;;;;;16.21;84.37;95544.72;4958247;29;20205;-86
2023/07/26 07:51:35;;;;;;;4.63;4.22;;;;;;;16.23;84.81;95547.09;4956629;29;20212;-86
2023/07/26 07:54:03;;;;;;;6.05;4.40;;;;;;;16.29;85.33;95561.06;4957758;29;20229;-87
2023/07/26 07:56:30;;;;;;;8.30;4.90;;;;;;;16.23;84.45;95545.31;4957047;29;20705;-87
2023/07/26 07:58:59;;;;;;;4.45;4.05;;;;;;;16.23;83.49;95524.53;4958542;29;20197;-86
2023/07/26 08:01:32;;;;;;;5.25;4.75;;;;;;;16.22;84.31;95548.91;4957599;29;20309;-87
2023/07/26 08:03:59;;;;;;;5.05;4.55;;;;;;;16.14;83.73;95540.59;4956282;29;20223;-87
2023/07/26 08:06:26;;;;;;;6.38;5.72;;;;;;;16.08;83.56;95538.84;4945617;29;20224;-87
2023/07/26 08:08:52;;;;;;;10.07;9.07;;;;;;;16.06;85.24;95572.81;4956432;29;20201;-87
2023/07/26 08:11:20;;;;;;;5.95;5.40;;;;;;;16.15;85.00;95574.16;4957084;29;20208;-87
2023/07/26 08:13:58;;;;;;;5.10;4.50;;;;;;;16.12;85.63;95581.59;4957063;29;20201;-87
2023/07/26 08:16:24;;;;;;;4.63;4.22;;;;;;;16.05;84.54;95547.84;4956822;29;20200;-87
2023/07/26 08:18:50;;;;;;;4.80;4.40;;;;;;;16.09;84.78;95556.81;4955679;29;20204;-88
2023/07/26 08:21:17;;;;;;;5.07;4.43;;;;;;;16.07;84.48;95560.63;4957160;29;20205;-88
2023/07/26 08:23:44;;;;;;;4.90;4.50;;;;;;;16.14;84.82;95566.59;4953324;29;20220;-87
2023/07/26 08:26:20;;;;;;;;;;;;;;;;;;;;;
2023/07/26 08:28:59;;;;;;;4.78;4.38;;;;;;;16.08;82.85;95534.44;4954644;29;20204;-87
2023/07/26 08:31:36;;;;;;;;;;;;;;;;;;;;;
2023/07/26 08:34:03;;;;;;;4.10;3.67;;;;;;;16.19;83.79;95551.13;4952480;29;20232;-87
2023/07/26 08:36:29;;;;;;;4.25;3.85;;;;;;;16.31;83.39;95546.84;4953176;29;20228;-87
2023/07/26 08:41:48;;;;;;;4.05;3.70;;;;;;;16.37;82.25;95521.81;4955375;29;20212;-86
2023/07/26 08:44:25;;;;;;;3.67;3.30;;;;;;;16.36;81.37;95505.41;4955661;29;20278;-87
2023/07/26 08:47:10;;;;;;;3.30;2.95;;;;;;;16.38;78.79;95453.22;4957132;29;20314;-87
2023/07/26 08:49:37;;;;;;;3.20;2.90;;;;;;;16.40;78.90;95449.41;4956564;29;20212;-86
2023/07/26 08:52:33;;;;;;;5.00;3.67;;;;;;;16.42;79.46;95475.97;4944862;29;20232;-87
2023/07/26 08:58:18;;;;;;;3.00;2.80;;;;;;;16.62;78.62;95460.19;4969456;23;20260;-86
2023/07/26 09:00:47;;;;;;;3.78;3.15;;;;;;;16.59;75.41;95383.41;4898951;29;20831;-86
2023/07/26 09:03:13;;;;;;;3.30;2.80;;;;;;;16.62;74.83;95371.81;4912974;29;20217;-87
2023/07/26 09:05:45;;;;;;;2.85;2.63;;;;;;;16.82;74.93;95377.56;4902016;29;20227;-88
2023/07/26 09:08:27;;;;;;;3.97;2.80;;;;;;;17.23;74.07;95357.78;4898758;29;20207;-87
2023/07/26 09:11:01;;;;;;;4.47;3.17;;;;;;;17.38;73.13;95331.34;4895636;29;20692;-87
2023/07/26 09:13:36;;;;;;;3.88;2.90;;;;;;;17.44;71.93;95309.63;4899299;29;20293;-87
2023/07/26 09:16:04;;;;;;;3.35;3.03;;;;;;;17.54;70.85;95263.78;4898788;29;20250;-88
2023/07/26 09:18:34;;;;;;;3.20;3.00;;;;;;;17.56;70.72;95266.16;4898887;29;20202;-86
2023/07/26 09:21:12;;;;;;;4.40;3.00;;;;;;;17.45;70.90;95262.56;4898158;29;20207;-84
2023/07/26 09:26:39;;;;;;;3.28;2.72;;;;;;;17.83;71.00;95284.75;4893194;29;20223;-87
2023/07/26 09:29:43;;;;;;;3.08;2.60;;;;;;;17.69;69.06;95228.72;4899482;29;20295;-87
2023/07/26 09:32:33;;;;;;;2.65;2.45;;;;;;;17.77;69.17;95231.75;4899937;29;20211;-87
2023/07/26 09:35:32;;;;;;;3.15;2.78;;;;;;;17.64;69.96;95247.63;4894687;29;20231;-87
2023/07/26 09:37:59;;;;;;;3.97;3.38;;;;;;;17.75;69.31;95227.78;4897043;29;20223;-87
2023/07/26 09:40:41;;;;;;;3.03;2.78;;;;;;;17.77;68.27;95203.09;4899307;29;20214;-87
2023/07/26 09:43:08;;;;;;;3.65;2.30;;;;;;;17.78;66.57;95144.78;4896478;29;20214;-87
2023/07/26 09:45:47;;;;;;;2.67;2.00;;;;;;;17.70;67.87;95168.59;4898588;29;20231;-87
2023/07/26 09:48:32;;;;;;;2.85;2.53;;;;;;;17.76;70.84;95258.00;4899230;29;20936;-87
2023/07/26 09:54:02;;;;;;;2.55;2.20;;;;;;;18.17;68.95;95233.56;4900568;29;20360;-87
2023/07/26 09:56:51;;;;;;;2.60;2.15;;;;;;;18.05;67.67;95165.09;4899023;29;20219;-88
2023/07/26 09:59:53;;;;;;;2.28;1.90;;;;;;;18.46;65.51;95111.84;4898159;29;20209;-87
2023/07/26 10:02:48;;;;;;;3.38;2.30;;;;;;;18.64;63.91;95043.84;4900716;29;20210;-88
2023/07/26 10:05:26;;;;;;;3.03;2.63;;;;;;;18.92;61.79;94973.25;4900237;29;20768;-87
2023/07/26 10:16:26;;;;;;;3.67;2.00;;;;;;;19.84;59.73;94867.06;4897635;29;20278;-87
2023/07/26 10:22:21;;;;;;;2.30;2.10;;;;;;;18.95;61.11;94906.75;4893449;29;20214;-88
2023/07/26 10:30:31;;;;;;;2.38;2.08;;;;;;;18.30;62.34;94957.00;4884891;29;20218;-87
2023/07/26 10:33:19;;;;;;;1.77;1.60;;;;;;;18.80;62.10;94956.94;4897939;29;20306;-87
2023/07/26 10:39:14;;;;;;;;;;;;;;;;;;;;;
2023/07/26 10:42:06;;;;;;;2.08;1.98;;;;;;;19.72;60.40;94892.59;4899804;29;20207;-87
2023/07/26 10:44:48;;;;;;;1.88;1.77;;;;;;;19.76;59.74;94855.28;4898607;29;20223;-87
2023/07/26 10:47:18;;;;;;;3.50;1.90;;;;;;;20.05;59.25;94829.56;4884966;29;20327;-87
2023/07/26 10:50:04;;;;;;;2.63;1.90;;;;;;;19.89;60.51;94883.56;4898765;29;20210;-87
2023/07/26 10:53:00;;;;;;;3.63;1.77;;;;;;;20.06;59.23;94835.56;4878122;29;20282;-88
2023/07/26 10:55:46;;;;;;;1.83;1.73;;;;;;;19.87;59.84;94843.06;4875909;29;20223;-88
2023/07/26 10:58:13;;;;;;;2.33;1.88;;;;;;;20.40;56.97;94734.06;4888014;29;20211;-87
2023/07/26 11:01:05;;;;;;;1.50;1.40;;;;;;;20.38;52.58;94506.06;4898061;29;20256;-88
2023/07/26 11:04:32;;;;;;;2.58;1.40;;;;;;;20.61;52.55;94506.25;4894065;29;20231;-88
2023/07/26 11:07:01;;;;;;;1.75;1.65;;;;;;;20.47;51.98;94449.56;4837539;29;20376;-88
2023/07/26 11:10:14;;;;;;;;;;;;;;;;;;;;;
2023/07/26 11:27:54;;;;;;;2.50;2.10;;;;;;;19.42;59.00;94792.09;4964139;23;20228;-88
2023/07/26 11:30:37;;;;;;;2.15;1.90;;;;;;;19.21;59.14;94791.16;4937789;29;20235;-86
2023/07/26 11:34:17;;;;;;;3.05;2.03;;;;;;;19.02;59.77;94818.66;4935253;29;20208;-87
2023/07/26 11:47:42;;;;;;;3.10;2.70;;;;;;;16.49;74.98;95383.16;4861907;29;20253;-87
2023/07/26 11:53:51;;;;;;;2.42;2.13;;;;;;;16.16;80.39;95515.97;4883950;29;20283;-88
2023/07/26 11:56:30;;;;;;;2.45;1.88;;;;;;;16.14;81.38;95549.19;4846868;29;20305;-87
2023/07/26 11:59:08;;;;;;;2.35;1.80;;;;;;;16.12;82.22;95564.19;4909694;29;20290;-88
2023/07/26 12:08:30;;;;;;;2.95;2.00;;;;;;;16.44;82.39;95570.13;4901404;29;20213;-90
2023/07/26 12:14:26;;;;;;;2.20;2.00;;;;;;;16.52;83.34;95595.06;4899005;29;20589;-88
2023/07/26 12:17:18;;;;;;;3.33;2.15;;;;;;;16.51;82.92;95593.47;4901365;29;20334;-89
2023/07/26 12:19:53;;;;;;;2.28;1.83;;;;;;;16.58;82.92;95589.78;4897266;29;20298;-88
2023/07/26 12:34:00;;;;;;;2.97;2.03;;;;;;;16.88;81.31;95563.94;5146313;23;20392;-87
2023/07/26 12:36:56;;;;;;;1.75;1.63;;;;;;;16.70;78.31;95491.13;4913817;29;20358;-88
2023/07/26 12:45:03;;;;;;;1.95;1.85;;;;;;;16.61;79.18;95502.78;4934531;29;20217;-87
2023/07/26 12:47:55;;;;;;;2.50;1.80;;;;;;;16.74;79.74;95520.09;4929606;29;20221;-87
2023/07/26 12:50:29;;;;;;;1.67;1.55;;;;;;;16.82;79.21;95502.38;4940501;29;20205;-87
2023/07/26 12:53:11;;;;;;;1.70;1.60;;;;;;;16.95;78.48;95503.25;4940849;29;20208;-87
2023/07/26 12:55:37;;;;;;;1.98;1.77;;;;;;;16.89;76.58;95458.13;4941192;29;20232;-88
2023/07/26 12:58:04;;;;;;;3.20;1.92;;;;;;;16.99;77.66;95481.00;4939014;29;20201;-88
2023/07/26 13:03:19;;;;;;;8.85;8.05;;;;;;;17.13;77.59;95485.81;4937780;29;20211;-87
2023/07/26 13:05:58;;;;;;;2.13;1.60;;;;;;;17.06;77.22;95474.72;4941110;29;20931;-88
2023/07/26 13:29:04;;;;;;;;;;;;;;;;;;;;;
2023/07/26 13:43:07;;;;;;;1.30;1.15;;;;;;;17.95;71.42;95338.41;4754779;26;20227;-88
2023/07/26 13:45:45;;;;;;;1.77;1.40;;;;;;;17.76;73.79;95391.63;4937268;29;20217;-87
2023/07/26 13:54:50;;;;;;;1.65;1.55;;;;;;;17.54;76.59;95476.47;4933661;29;20706;-88
2023/07/26 13:57:37;;;;;;;2.05;1.73;;;;;;;17.51;78.28;95523.78;4925753;29;20288;-87
2023/07/26 14:00:06;;;;;;;2.15;1.90;;;;;;;17.47;77.83;95502.59;4927189;29;20300;-87
2023/07/26 14:02:33;;;;;;;2.53;2.00;;;;;;;17.45;77.54;95491.63;4929879;29;20226;-87
2023/07/26 14:07:43;;;;;;;2.35;2.15;;;;;;;17.24;74.63;95440.06;4928752;29;20221;-88
2023/07/26 14:10:10;;;;;;;2.30;2.10;;;;;;;17.20;77.09;95485.72;4926178;29;20197;-87
2023/07/26 14:12:37;;;;;;;2.28;2.08;;;;;;;17.05;77.55;95508.75;4930961;29;20202;-87
2023/07/26 14:15:19;;;;;;;1.92;1.80;;;;;;;17.00;76.99;95495.59;4929377;29;20222;-87